Matagorda, TX (77457)

7:02 PM CDT on September 30, 2016 (GMT -0500)
KTXMATAG2 | | Change Station

Elev 10 ft 28.69 °N, 95.97 °W | Updated 29 seconds ago

Clear
Clear
75.0 °F
Feels Like 77 °F
N
0.0
Wind Variable Wind from ENE

Today
High -- | Low -- °F
--% Chance of Precip.
Yesterday
High -- | Low -- °F
Precip. -- in
Pressure 30.04 in
Visibility 10.0 miles
Clouds Clear
Heat Index 77 °F
Dew Point 59 °F
Humidity 57%
Rainfall 0.00 in
Snow Depth Not available.
7:16 AM 7:10 PM
New Moon, 0% visible
METAR KPSX 302353Z AUTO 03005KT 10SM CLR 23/14 A3004 RMK AO2 SLP173 T02330139 10283 20233 56009
Pressure 30.04 in
Visibility 10.0 miles
Clouds Clear
Heat Index 77 °F
Dew Point 59 °F
Humidity 57%
Rainfall 0.00 in
Snow Depth Not available.
7:16 AM 7:10 PM
New Moon, 0% visible
METAR KPSX 302353Z AUTO 03005KT 10SM CLR 23/14 A3004 RMK AO2 SLP173 T02330139 10283 20233 56009

10-Day Weather Forecast

Almanac

Astronomy

Sep. 30, 2016 Rise Set
Actual Time
Civil Twilight
Nautical Twilight
Astronomical Twilight
Moon
Length of Visible Light
Length of Day
Tomorrow will be .
, % of the Moon is Illuminated

Today's Extremes

State Highs State Lows

Community

WunderPhotos

Upload Photos

1,942,829 photos uploaded!

WunderBlog® & News

Nearby

Air Quality

  Air Quality AQ Index Pollutant
Not available.

Snow Depth

Station Depth Elevation

Earthquake Activity

City Distance Mag. Time & Date
Minimum magnitude displayed is 2.5.

Coastal Water Temperatures

Place Temperature

Stations

Nearby Weather Stations

Station Location Temp. Windchill Dew Point Humidity Wind Precip. Elev Updated Type
                   

Watches & Warnings

There are currently no watches in effect.